sensor_id;sensor_type;location;lat;lon;timestamp;P1;durP1;ratioP1;P2;durP2;ratioP2
75427;SDS011;64008;55.612;37.698;2022-10-22T00:00:00;10.20;;;4.35;;
75427;SDS011;64008;55.612;37.698;2022-10-22T00:02:25;10.00;;;3.83;;
75427;SDS011;64008;55.612;37.698;2022-10-22T00:04:52;9.70;;;4.38;;
75427;SDS011;64008;55.612;37.698;2022-10-22T00:07:19;8.52;;;4.28;;
75427;SDS011;64008;55.612;37.698;2022-10-22T00:09:45;8.88;;;4.22;;
75427;SDS011;64008;55.612;37.698;2022-10-22T00:12:11;9.00;;;4.30;;
75427;SDS011;64008;55.612;37.698;2022-10-22T00:14:37;9.75;;;4.70;;
75427;SDS011;64008;55.612;37.698;2022-10-22T00:17:04;12.80;;;5.03;;
75427;SDS011;64008;55.612;37.698;2022-10-22T00:19:29;11.02;;;4.78;;
75427;SDS011;64008;55.612;37.698;2022-10-22T00:21:55;10.65;;;4.47;;
75427;SDS011;64008;55.612;37.698;2022-10-22T00:24:22;10.70;;;4.82;;
75427;SDS011;64008;55.612;37.698;2022-10-22T00:26:48;9.90;;;4.70;;
75427;SDS011;64008;55.612;37.698;2022-10-22T00:29:14;9.25;;;4.60;;
75427;SDS011;64008;55.612;37.698;2022-10-22T00:31:39;10.73;;;4.85;;
75427;SDS011;64008;55.612;37.698;2022-10-22T00:34:05;12.85;;;4.85;;
75427;SDS011;64008;55.612;37.698;2022-10-22T00:36:30;11.80;;;5.10;;
75427;SDS011;64008;55.612;37.698;2022-10-22T00:38:56;12.13;;;4.88;;
75427;SDS011;64008;55.612;37.698;2022-10-22T00:41:21;11.93;;;5.05;;
75427;SDS011;64008;55.612;37.698;2022-10-22T00:43:57;11.93;;;5.82;;
75427;SDS011;64008;55.612;37.698;2022-10-22T00:46:28;10.13;;;5.10;;
75427;SDS011;64008;55.612;37.698;2022-10-22T00:48:53;10.13;;;4.63;;
75427;SDS011;64008;55.612;37.698;2022-10-22T00:51:21;10.10;;;4.68;;
75427;SDS011;64008;55.612;37.698;2022-10-22T00:53:51;10.68;;;4.85;;
75427;SDS011;64008;55.612;37.698;2022-10-22T00:56:20;13.25;;;5.68;;
75427;SDS011;64008;55.612;37.698;2022-10-22T00:58:48;10.27;;;5.82;;
75427;SDS011;64008;55.612;37.698;2022-10-22T01:01:20;15.10;;;6.03;;
75427;SDS011;64008;55.612;37.698;2022-10-22T01:03:48;15.15;;;6.68;;
75427;SDS011;64008;55.612;37.698;2022-10-22T01:06:21;13.38;;;6.53;;
75427;SDS011;64008;55.612;37.698;2022-10-22T01:29:15;12.68;;;6.35;;
75427;SDS011;64008;55.612;37.698;2022-10-22T01:31:41;13.20;;;5.95;;
75427;SDS011;64008;55.612;37.698;2022-10-22T01:34:11;13.52;;;5.93;;
75427;SDS011;64008;55.612;37.698;2022-10-22T01:36:40;13.80;;;5.47;;
75427;SDS011;64008;55.612;37.698;2022-10-22T01:39:06;14.60;;;5.57;;
75427;SDS011;64008;55.612;37.698;2022-10-22T01:41:33;11.32;;;5.50;;
75427;SDS011;64008;55.612;37.698;2022-10-22T01:43:58;12.02;;;5.28;;
75427;SDS011;64008;55.612;37.698;2022-10-22T01:46:24;11.73;;;5.53;;
75427;SDS011;64008;55.612;37.698;2022-10-22T01:49:12;13.57;;;6.15;;
75427;SDS011;64008;55.612;37.698;2022-10-22T01:52:03;13.20;;;5.78;;
75427;SDS011;64008;55.612;37.698;2022-10-22T01:57:18;14.88;;;6.22;;
75427;SDS011;64008;55.612;37.698;2022-10-22T01:59:56;12.70;;;6.18;;
75427;SDS011;64008;55.612;37.698;2022-10-22T02:07:53;14.23;;;6.22;;
75427;SDS011;64008;55.612;37.698;2022-10-22T02:10:24;12.82;;;6.03;;
75427;SDS011;64008;55.612;37.698;2022-10-22T02:12:52;14.35;;;6.53;;
75427;SDS011;64008;55.612;37.698;2022-10-22T02:15:20;15.70;;;6.47;;
75427;SDS011;64008;55.612;37.698;2022-10-22T02:17:47;14.45;;;6.43;;
75427;SDS011;64008;55.612;37.698;2022-10-22T02:20:16;15.00;;;6.60;;
75427;SDS011;64008;55.612;37.698;2022-10-22T02:22:45;15.25;;;7.43;;
75427;SDS011;64008;55.612;37.698;2022-10-22T02:25:11;14.82;;;6.47;;
75427;SDS011;64008;55.612;37.698;2022-10-22T02:30:11;14.30;;;6.90;;
75427;SDS011;64008;55.612;37.698;2022-10-22T02:32:42;13.07;;;6.43;;
75427;SDS011;64008;55.612;37.698;2022-10-22T02:35:16;14.52;;;6.80;;
75427;SDS011;64008;55.612;37.698;2022-10-22T02:37:44;13.23;;;6.47;;
75427;SDS011;64008;55.612;37.698;2022-10-22T02:40:10;13.75;;;6.60;;
75427;SDS011;64008;55.612;37.698;2022-10-22T02:42:36;14.02;;;6.70;;
75427;SDS011;64008;55.612;37.698;2022-10-22T02:45:04;14.82;;;6.85;;
75427;SDS011;64008;55.612;37.698;2022-10-22T02:47:30;14.43;;;6.78;;
75427;SDS011;64008;55.612;37.698;2022-10-22T02:49:55;13.82;;;6.15;;
75427;SDS011;64008;55.612;37.698;2022-10-22T02:52:21;14.50;;;6.88;;
75427;SDS011;64008;55.612;37.698;2022-10-22T02:54:46;14.73;;;5.68;;
75427;SDS011;64008;55.612;37.698;2022-10-22T02:57:12;17.00;;;5.78;;
75427;SDS011;64008;55.612;37.698;2022-10-22T02:59:37;10.25;;;5.28;;
75427;SDS011;64008;55.612;37.698;2022-10-22T03:02:03;12.00;;;6.25;;
75427;SDS011;64008;55.612;37.698;2022-10-22T03:04:28;11.02;;;5.50;;
75427;SDS011;64008;55.612;37.698;2022-10-22T03:06:54;12.73;;;5.80;;
75427;SDS011;64008;55.612;37.698;2022-10-22T03:09:19;12.52;;;5.78;;
75427;SDS011;64008;55.612;37.698;2022-10-22T03:11:45;11.93;;;6.05;;
75427;SDS011;64008;55.612;37.698;2022-10-22T03:14:11;16.23;;;6.28;;
75427;SDS011;64008;55.612;37.698;2022-10-22T03:16:36;14.50;;;6.72;;
75427;SDS011;64008;55.612;37.698;2022-10-22T03:19:02;15.27;;;6.93;;
75427;SDS011;64008;55.612;37.698;2022-10-22T03:21:38;12.38;;;6.05;;
75427;SDS011;64008;55.612;37.698;2022-10-22T03:24:09;15.73;;;6.80;;
75427;SDS011;64008;55.612;37.698;2022-10-22T03:26:38;14.52;;;7.15;;
75427;SDS011;64008;55.612;37.698;2022-10-22T03:29:05;14.88;;;6.88;;
75427;SDS011;64008;55.612;37.698;2022-10-22T03:31:32;10.90;;;6.00;;
75427;SDS011;64008;55.612;37.698;2022-10-22T03:33:57;14.35;;;6.80;;
75427;SDS011;64008;55.612;37.698;2022-10-22T03:36:23;21.90;;;7.47;;
75427;SDS011;64008;55.612;37.698;2022-10-22T03:38:49;16.45;;;6.95;;
75427;SDS011;64008;55.612;37.698;2022-10-22T03:41:15;13.40;;;6.28;;
75427;SDS011;64008;55.612;37.698;2022-10-22T03:43:40;13.27;;;6.90;;
75427;SDS011;64008;55.612;37.698;2022-10-22T03:46:06;14.60;;;7.47;;
75427;SDS011;64008;55.612;37.698;2022-10-22T03:48:31;12.45;;;6.28;;
75427;SDS011;64008;55.612;37.698;2022-10-22T03:50:57;13.45;;;6.88;;
75427;SDS011;64008;55.612;37.698;2022-10-22T03:53:22;16.52;;;6.05;;
75427;SDS011;64008;55.612;37.698;2022-10-22T03:55:48;12.18;;;5.78;;
75427;SDS011;64008;55.612;37.698;2022-10-22T03:58:14;14.70;;;7.20;;
75427;SDS011;64008;55.612;37.698;2022-10-22T04:00:40;15.43;;;7.00;;
75427;SDS011;64008;55.612;37.698;2022-10-22T04:03:05;14.50;;;6.82;;
75427;SDS011;64008;55.612;37.698;2022-10-22T04:05:31;16.48;;;7.85;;
75427;SDS011;64008;55.612;37.698;2022-10-22T04:07:58;17.05;;;7.60;;
75427;SDS011;64008;55.612;37.698;2022-10-22T04:10:23;17.35;;;7.60;;
75427;SDS011;64008;55.612;37.698;2022-10-22T04:12:49;16.58;;;7.13;;
75427;SDS011;64008;55.612;37.698;2022-10-22T04:15:15;16.45;;;7.38;;
75427;SDS011;64008;55.612;37.698;2022-10-22T04:17:40;18.30;;;7.95;;
75427;SDS011;64008;55.612;37.698;2022-10-22T04:20:06;18.60;;;7.55;;
75427;SDS011;64008;55.612;37.698;2022-10-22T04:22:32;14.73;;;6.88;;
75427;SDS011;64008;55.612;37.698;2022-10-22T04:24:59;15.75;;;7.97;;
75427;SDS011;64008;55.612;37.698;2022-10-22T04:27:24;14.80;;;7.15;;
75427;SDS011;64008;55.612;37.698;2022-10-22T04:29:49;16.75;;;6.97;;
75427;SDS011;64008;55.612;37.698;2022-10-22T04:32:16;15.45;;;6.57;;
75427;SDS011;64008;55.612;37.698;2022-10-22T04:34:41;14.88;;;6.75;;
75427;SDS011;64008;55.612;37.698;2022-10-22T04:37:07;15.23;;;6.72;;
75427;SDS011;64008;55.612;37.698;2022-10-22T04:39:32;15.75;;;6.80;;
75427;SDS011;64008;55.612;37.698;2022-10-22T04:41:57;16.75;;;6.70;;
75427;SDS011;64008;55.612;37.698;2022-10-22T04:44:23;14.45;;;6.90;;
75427;SDS011;64008;55.612;37.698;2022-10-22T04:46:48;13.68;;;6.60;;
75427;SDS011;64008;55.612;37.698;2022-10-22T04:49:14;13.55;;;6.70;;
75427;SDS011;64008;55.612;37.698;2022-10-22T04:51:39;13.00;;;6.32;;
75427;SDS011;64008;55.612;37.698;2022-10-22T04:54:05;13.65;;;6.97;;
75427;SDS011;64008;55.612;37.698;2022-10-22T04:56:30;14.70;;;6.13;;
75427;SDS011;64008;55.612;37.698;2022-10-22T04:59:00;15.32;;;6.80;;
75427;SDS011;64008;55.612;37.698;2022-10-22T05:01:32;12.60;;;6.60;;
75427;SDS011;64008;55.612;37.698;2022-10-22T05:04:00;13.45;;;6.35;;
75427;SDS011;64008;55.612;37.698;2022-10-22T05:06:27;13.57;;;6.22;;
75427;SDS011;64008;55.612;37.698;2022-10-22T05:08:56;15.73;;;6.88;;
75427;SDS011;64008;55.612;37.698;2022-10-22T05:11:28;12.10;;;5.63;;
75427;SDS011;64008;55.612;37.698;2022-10-22T05:13:58;15.15;;;5.68;;
75427;SDS011;64008;55.612;37.698;2022-10-22T05:16:24;14.25;;;6.30;;
75427;SDS011;64008;55.612;37.698;2022-10-22T05:18:51;13.10;;;5.63;;
75427;SDS011;64008;55.612;37.698;2022-10-22T05:21:18;14.13;;;6.45;;
75427;SDS011;64008;55.612;37.698;2022-10-22T05:23:45;12.70;;;6.07;;
75427;SDS011;64008;55.612;37.698;2022-10-22T05:26:12;15.48;;;6.68;;
75427;SDS011;64008;55.612;37.698;2022-10-22T05:28:39;12.43;;;6.00;;
75427;SDS011;64008;55.612;37.698;2022-10-22T05:31:05;12.40;;;6.28;;
75427;SDS011;64008;55.612;37.698;2022-10-22T05:33:32;13.18;;;6.15;;
75427;SDS011;64008;55.612;37.698;2022-10-22T05:35:58;15.27;;;6.13;;
75427;SDS011;64008;55.612;37.698;2022-10-22T05:38:25;13.02;;;6.30;;
75427;SDS011;64008;55.612;37.698;2022-10-22T05:43:28;11.55;;;6.03;;
75427;SDS011;64008;55.612;37.698;2022-10-22T05:45:54;11.73;;;5.90;;
75427;SDS011;64008;55.612;37.698;2022-10-22T05:48:20;14.93;;;6.68;;
75427;SDS011;64008;55.612;37.698;2022-10-22T05:50:45;12.20;;;5.75;;
75427;SDS011;64008;55.612;37.698;2022-10-22T05:53:15;13.45;;;6.18;;
75427;SDS011;64008;55.612;37.698;2022-10-22T05:55:42;11.25;;;5.55;;
75427;SDS011;64008;55.612;37.698;2022-10-22T05:58:08;11.77;;;6.18;;
75427;SDS011;64008;55.612;37.698;2022-10-22T06:00:37;11.32;;;5.60;;
75427;SDS011;64008;55.612;37.698;2022-10-22T06:03:03;12.18;;;5.78;;
75427;SDS011;64008;55.612;37.698;2022-10-22T06:05:28;12.63;;;5.20;;
75427;SDS011;64008;55.612;37.698;2022-10-22T06:07:54;10.98;;;5.05;;
75427;SDS011;64008;55.612;37.698;2022-10-22T06:10:21;13.07;;;5.72;;
75427;SDS011;64008;55.612;37.698;2022-10-22T06:12:47;9.85;;;4.97;;
75427;SDS011;64008;55.612;37.698;2022-10-22T06:15:14;11.18;;;5.25;;
75427;SDS011;64008;55.612;37.698;2022-10-22T06:17:42;11.13;;;5.20;;
75427;SDS011;64008;55.612;37.698;2022-10-22T06:20:08;9.82;;;5.53;;
75427;SDS011;64008;55.612;37.698;2022-10-22T06:22:35;11.70;;;5.93;;
75427;SDS011;64008;55.612;37.698;2022-10-22T06:25:00;9.75;;;4.72;;
75427;SDS011;64008;55.612;37.698;2022-10-22T06:27:26;10.70;;;5.10;;
75427;SDS011;64008;55.612;37.698;2022-10-22T06:29:51;11.32;;;5.45;;
75427;SDS011;64008;55.612;37.698;2022-10-22T06:32:16;10.93;;;5.20;;
75427;SDS011;64008;55.612;37.698;2022-10-22T06:34:42;10.48;;;5.38;;
75427;SDS011;64008;55.612;37.698;2022-10-22T06:37:08;11.10;;;4.82;;
75427;SDS011;64008;55.612;37.698;2022-10-22T06:39:34;11.35;;;5.15;;
75427;SDS011;64008;55.612;37.698;2022-10-22T06:42:00;13.20;;;5.25;;
75427;SDS011;64008;55.612;37.698;2022-10-22T06:44:25;8.80;;;4.63;;
75427;SDS011;64008;55.612;37.698;2022-10-22T06:46:51;7.50;;;3.70;;
75427;SDS011;64008;55.612;37.698;2022-10-22T06:49:17;8.50;;;4.25;;
75427;SDS011;64008;55.612;37.698;2022-10-22T06:51:44;8.73;;;4.63;;
75427;SDS011;64008;55.612;37.698;2022-10-22T06:54:10;8.50;;;4.28;;
75427;SDS011;64008;55.612;37.698;2022-10-22T06:56:36;8.27;;;3.75;;
75427;SDS011;64008;55.612;37.698;2022-10-22T06:59:01;8.98;;;5.18;;
75427;SDS011;64008;55.612;37.698;2022-10-22T07:01:31;7.60;;;3.72;;
75427;SDS011;64008;55.612;37.698;2022-10-22T07:03:57;8.45;;;3.78;;
75427;SDS011;64008;55.612;37.698;2022-10-22T07:06:24;8.20;;;3.70;;
75427;SDS011;64008;55.612;37.698;2022-10-22T07:11:18;10.38;;;3.92;;
75427;SDS011;64008;55.612;37.698;2022-10-22T07:13:48;8.57;;;4.35;;
75427;SDS011;64008;55.612;37.698;2022-10-22T07:16:14;9.57;;;4.50;;
75427;SDS011;64008;55.612;37.698;2022-10-22T07:18:41;10.32;;;5.10;;
75427;SDS011;64008;55.612;37.698;2022-10-22T07:21:08;9.27;;;4.25;;
75427;SDS011;64008;55.612;37.698;2022-10-22T07:23:34;14.27;;;4.20;;
75427;SDS011;64008;55.612;37.698;2022-10-22T07:26:00;10.27;;;4.60;;
75427;SDS011;64008;55.612;37.698;2022-10-22T07:28:30;9.68;;;4.30;;
75427;SDS011;64008;55.612;37.698;2022-10-22T07:30:57;10.88;;;4.07;;
75427;SDS011;64008;55.612;37.698;2022-10-22T07:33:23;6.40;;;3.22;;
75427;SDS011;64008;55.612;37.698;2022-10-22T07:35:49;9.02;;;4.00;;
75427;SDS011;64008;55.612;37.698;2022-10-22T07:38:14;8.65;;;4.22;;
75427;SDS011;64008;55.612;37.698;2022-10-22T07:40:40;9.98;;;4.22;;
75427;SDS011;64008;55.612;37.698;2022-10-22T07:43:05;10.13;;;3.65;;
75427;SDS011;64008;55.612;37.698;2022-10-22T07:45:31;8.60;;;3.75;;
75427;SDS011;64008;55.612;37.698;2022-10-22T07:47:57;8.52;;;4.40;;
75427;SDS011;64008;55.612;37.698;2022-10-22T07:50:24;8.02;;;3.60;;
75427;SDS011;64008;55.612;37.698;2022-10-22T07:52:50;9.20;;;3.72;;
75427;SDS011;64008;55.612;37.698;2022-10-22T07:55:15;8.07;;;4.07;;
75427;SDS011;64008;55.612;37.698;2022-10-22T07:57:41;8.23;;;2.92;;
75427;SDS011;64008;55.612;37.698;2022-10-22T08:00:07;5.95;;;2.88;;
75427;SDS011;64008;55.612;37.698;2022-10-22T08:02:33;8.18;;;3.58;;
75427;SDS011;64008;55.612;37.698;2022-10-22T08:04:59;5.88;;;2.70;;
75427;SDS011;64008;55.612;37.698;2022-10-22T08:07:24;7.93;;;3.42;;
75427;SDS011;64008;55.612;37.698;2022-10-22T08:09:50;6.72;;;3.40;;
75427;SDS011;64008;55.612;37.698;2022-10-22T08:12:15;7.85;;;4.00;;
75427;SDS011;64008;55.612;37.698;2022-10-22T08:14:41;7.68;;;3.70;;
75427;SDS011;64008;55.612;37.698;2022-10-22T08:17:06;7.40;;;3.40;;
75427;SDS011;64008;55.612;37.698;2022-10-22T08:19:32;8.95;;;3.35;;
75427;SDS011;64008;55.612;37.698;2022-10-22T08:24:24;7.37;;;3.40;;
75427;SDS011;64008;55.612;37.698;2022-10-22T08:26:51;7.28;;;3.85;;
75427;SDS011;64008;55.612;37.698;2022-10-22T08:29:18;6.07;;;3.17;;
75427;SDS011;64008;55.612;37.698;2022-10-22T08:31:45;8.07;;;2.88;;
75427;SDS011;64008;55.612;37.698;2022-10-22T08:34:11;5.45;;;2.60;;
75427;SDS011;64008;55.612;37.698;2022-10-22T08:36:36;7.00;;;3.42;;
75427;SDS011;64008;55.612;37.698;2022-10-22T08:39:02;8.02;;;3.13;;
75427;SDS011;64008;55.612;37.698;2022-10-22T08:41:28;6.03;;;2.85;;
75427;SDS011;64008;55.612;37.698;2022-10-22T08:47:23;6.50;;;2.90;;
75427;SDS011;64008;55.612;37.698;2022-10-22T08:49:52;7.70;;;2.55;;
75427;SDS011;64008;55.612;37.698;2022-10-22T08:52:18;5.55;;;2.78;;
75427;SDS011;64008;55.612;37.698;2022-10-22T09:03:04;6.78;;;2.83;;
75427;SDS011;64008;55.612;37.698;2022-10-22T09:08:21;6.32;;;2.70;;
75427;SDS011;64008;55.612;37.698;2022-10-22T09:10:52;9.93;;;2.97;;
75427;SDS011;64008;55.612;37.698;2022-10-22T09:13:26;5.22;;;2.65;;
75427;SDS011;64008;55.612;37.698;2022-10-22T09:15:53;6.03;;;2.85;;
75427;SDS011;64008;55.612;37.698;2022-10-22T09:18:28;5.82;;;3.25;;
75427;SDS011;64008;55.612;37.698;2022-10-22T09:21:04;7.28;;;3.40;;
75427;SDS011;64008;55.612;37.698;2022-10-22T09:24:23;6.93;;;3.38;;
75427;SDS011;64008;55.612;37.698;2022-10-22T09:26:29;6.35;;;3.13;;
75427;SDS011;64008;55.612;37.698;2022-10-22T09:28:59;5.47;;;2.95;;
75427;SDS011;64008;55.612;37.698;2022-10-22T09:31:26;7.95;;;3.20;;
75427;SDS011;64008;55.612;37.698;2022-10-22T09:33:54;6.07;;;2.90;;
75427;SDS011;64008;55.612;37.698;2022-10-22T09:36:21;6.53;;;3.20;;
75427;SDS011;64008;55.612;37.698;2022-10-22T09:38:49;8.27;;;3.17;;
75427;SDS011;64008;55.612;37.698;2022-10-22T09:41:16;5.75;;;2.42;;
75427;SDS011;64008;55.612;37.698;2022-10-22T09:43:46;5.95;;;2.78;;
75427;SDS011;64008;55.612;37.698;2022-10-22T09:46:18;6.20;;;2.90;;
75427;SDS011;64008;55.612;37.698;2022-10-22T09:49:02;7.25;;;2.70;;
75427;SDS011;64008;55.612;37.698;2022-10-22T09:54:10;6.00;;;2.83;;
75427;SDS011;64008;55.612;37.698;2022-10-22T09:56:39;7.35;;;2.90;;
75427;SDS011;64008;55.612;37.698;2022-10-22T09:59:12;5.70;;;2.63;;
75427;SDS011;64008;55.612;37.698;2022-10-22T10:01:39;6.85;;;2.65;;
75427;SDS011;64008;55.612;37.698;2022-10-22T10:04:06;7.30;;;2.92;;
75427;SDS011;64008;55.612;37.698;2022-10-22T10:06:34;6.18;;;2.25;;
75427;SDS011;64008;55.612;37.698;2022-10-22T10:09:05;5.38;;;2.65;;
75427;SDS011;64008;55.612;37.698;2022-10-22T10:11:56;5.10;;;2.55;;
75427;SDS011;64008;55.612;37.698;2022-10-22T10:14:47;5.30;;;2.58;;
75427;SDS011;64008;55.612;37.698;2022-10-22T10:17:47;5.75;;;2.10;;
75427;SDS011;64008;55.612;37.698;2022-10-22T10:30:53;5.07;;;2.25;;
75427;SDS011;64008;55.612;37.698;2022-10-22T10:33:33;5.00;;;2.10;;
75427;SDS011;64008;55.612;37.698;2022-10-22T10:36:05;4.97;;;2.25;;
75427;SDS011;64008;55.612;37.698;2022-10-22T10:41:10;5.30;;;2.10;;
75427;SDS011;64008;55.612;37.698;2022-10-22T10:49:18;4.25;;;1.88;;
75427;SDS011;64008;55.612;37.698;2022-10-22T10:57:45;8.68;;;3.10;;
75427;SDS011;64008;55.612;37.698;2022-10-22T11:00:23;9.93;;;3.60;;
75427;SDS011;64008;55.612;37.698;2022-10-22T11:05:53;6.05;;;2.70;;
75427;SDS011;64008;55.612;37.698;2022-10-22T11:08:26;5.88;;;2.22;;
75427;SDS011;64008;55.612;37.698;2022-10-22T11:16:15;5.95;;;2.25;;
75427;SDS011;64008;55.612;37.698;2022-10-22T11:19:23;5.05;;;2.15;;
75427;SDS011;64008;55.612;37.698;2022-10-22T11:26:57;7.10;;;2.00;;
75427;SDS011;64008;55.612;37.698;2022-10-22T11:29:47;4.22;;;1.77;;
75427;SDS011;64008;55.612;37.698;2022-10-22T11:32:18;5.82;;;1.92;;
75427;SDS011;64008;55.612;37.698;2022-10-22T11:34:49;4.60;;;1.65;;
75427;SDS011;64008;55.612;37.698;2022-10-22T11:37:19;7.38;;;1.92;;
75427;SDS011;64008;55.612;37.698;2022-10-22T11:42:34;8.02;;;2.67;;
75427;SDS011;64008;55.612;37.698;2022-10-22T11:45:44;7.15;;;2.42;;
75427;SDS011;64008;55.612;37.698;2022-10-22T11:55:41;5.03;;;2.03;;
75427;SDS011;64008;55.612;37.698;2022-10-22T12:08:45;7.03;;;1.98;;
75427;SDS011;64008;55.612;37.698;2022-10-22T12:25:15;5.03;;;1.73;;
75427;SDS011;64008;55.612;37.698;2022-10-22T12:27:44;5.25;;;1.55;;
75427;SDS011;64008;55.612;37.698;2022-10-22T12:30:17;4.15;;;1.55;;
75427;SDS011;64008;55.612;37.698;2022-10-22T12:32:42;5.28;;;1.80;;
75427;SDS011;64008;55.612;37.698;2022-10-22T12:35:18;4.60;;;1.73;;
75427;SDS011;64008;55.612;37.698;2022-10-22T12:37:49;5.00;;;1.73;;
75427;SDS011;64008;55.612;37.698;2022-10-22T12:40:19;4.43;;;1.88;;
75427;SDS011;64008;55.612;37.698;2022-10-22T12:45:17;4.80;;;1.88;;
75427;SDS011;64008;55.612;37.698;2022-10-22T12:47:49;5.00;;;1.52;;
75427;SDS011;64008;55.612;37.698;2022-10-22T12:50:30;6.10;;;1.60;;
75427;SDS011;64008;55.612;37.698;2022-10-22T12:53:01;5.13;;;2.05;;
75427;SDS011;64008;55.612;37.698;2022-10-22T12:55:27;4.82;;;1.83;;
75427;SDS011;64008;55.612;37.698;2022-10-22T12:57:55;6.22;;;1.75;;
75427;SDS011;64008;55.612;37.698;2022-10-22T13:00:22;5.03;;;1.77;;
75427;SDS011;64008;55.612;37.698;2022-10-22T13:02:50;5.00;;;1.70;;
75427;SDS011;64008;55.612;37.698;2022-10-22T13:07:51;5.95;;;1.77;;
75427;SDS011;64008;55.612;37.698;2022-10-22T13:10:22;4.43;;;1.83;;
75427;SDS011;64008;55.612;37.698;2022-10-22T13:12:50;4.75;;;1.70;;
75427;SDS011;64008;55.612;37.698;2022-10-22T13:15:20;5.13;;;1.98;;
75427;SDS011;64008;55.612;37.698;2022-10-22T13:18:18;5.13;;;1.95;;
75427;SDS011;64008;55.612;37.698;2022-10-22T13:21:47;5.65;;;2.20;;
75427;SDS011;64008;55.612;37.698;2022-10-22T13:24:19;6.65;;;2.33;;
75427;SDS011;64008;55.612;37.698;2022-10-22T13:26:48;7.43;;;2.78;;
75427;SDS011;64008;55.612;37.698;2022-10-22T13:29:16;6.82;;;2.47;;
75427;SDS011;64008;55.612;37.698;2022-10-22T13:31:50;6.60;;;2.00;;
75427;SDS011;64008;55.612;37.698;2022-10-22T13:34:21;5.10;;;2.15;;
75427;SDS011;64008;55.612;37.698;2022-10-22T13:36:49;5.05;;;2.13;;
75427;SDS011;64008;55.612;37.698;2022-10-22T13:39:18;8.43;;;2.67;;
75427;SDS011;64008;55.612;37.698;2022-10-22T13:41:49;5.22;;;2.38;;
75427;SDS011;64008;55.612;37.698;2022-10-22T13:44:16;6.57;;;2.53;;
75427;SDS011;64008;55.612;37.698;2022-10-22T13:46:42;6.75;;;2.67;;
75427;SDS011;64008;55.612;37.698;2022-10-22T13:49:13;6.03;;;2.55;;
75427;SDS011;64008;55.612;37.698;2022-10-22T13:51:44;7.95;;;2.60;;
75427;SDS011;64008;55.612;37.698;2022-10-22T13:54:20;6.60;;;2.92;;
75427;SDS011;64008;55.612;37.698;2022-10-22T13:56:47;10.35;;;3.38;;
75427;SDS011;64008;55.612;37.698;2022-10-22T13:59:14;5.88;;;2.50;;
75427;SDS011;64008;55.612;37.698;2022-10-22T14:01:40;7.05;;;2.92;;
75427;SDS011;64008;55.612;37.698;2022-10-22T14:04:06;7.28;;;2.92;;
75427;SDS011;64008;55.612;37.698;2022-10-22T14:06:34;7.43;;;3.13;;
75427;SDS011;64008;55.612;37.698;2022-10-22T14:09:02;9.13;;;3.10;;
75427;SDS011;64008;55.612;37.698;2022-10-22T14:11:29;7.13;;;3.17;;
75427;SDS011;64008;55.612;37.698;2022-10-22T14:13:56;8.38;;;4.05;;
75427;SDS011;64008;55.612;37.698;2022-10-22T14:16:24;9.13;;;4.30;;
75427;SDS011;64008;55.612;37.698;2022-10-22T14:18:51;10.20;;;4.40;;
75427;SDS011;64008;55.612;37.698;2022-10-22T14:21:17;11.73;;;4.18;;
75427;SDS011;64008;55.612;37.698;2022-10-22T14:23:44;8.68;;;3.92;;
75427;SDS011;64008;55.612;37.698;2022-10-22T14:26:17;9.20;;;4.43;;
75427;SDS011;64008;55.612;37.698;2022-10-22T14:28:47;9.30;;;3.22;;
75427;SDS011;64008;55.612;37.698;2022-10-22T14:31:13;10.23;;;3.30;;
75427;SDS011;64008;55.612;37.698;2022-10-22T14:33:39;9.93;;;3.60;;
75427;SDS011;64008;55.612;37.698;2022-10-22T14:36:05;10.60;;;3.67;;
75427;SDS011;64008;55.612;37.698;2022-10-22T14:38:30;9.90;;;3.13;;
75427;SDS011;64008;55.612;37.698;2022-10-22T14:40:56;8.32;;;2.88;;
75427;SDS011;64008;55.612;37.698;2022-10-22T14:43:27;10.45;;;3.17;;
75427;SDS011;64008;55.612;37.698;2022-10-22T14:45:55;5.85;;;2.78;;
75427;SDS011;64008;55.612;37.698;2022-10-22T14:48:21;9.15;;;3.20;;
75427;SDS011;64008;55.612;37.698;2022-10-22T14:50:47;8.60;;;3.40;;
75427;SDS011;64008;55.612;37.698;2022-10-22T14:53:13;6.93;;;3.20;;
75427;SDS011;64008;55.612;37.698;2022-10-22T14:55:40;9.02;;;3.47;;
75427;SDS011;64008;55.612;37.698;2022-10-22T14:58:08;33.08;;;11.40;;
75427;SDS011;64008;55.612;37.698;2022-10-22T15:00:34;14.50;;;4.57;;
75427;SDS011;64008;55.612;37.698;2022-10-22T15:03:01;24.88;;;8.05;;
75427;SDS011;64008;55.612;37.698;2022-10-22T15:05:27;16.45;;;7.50;;
75427;SDS011;64008;55.612;37.698;2022-10-22T15:07:53;14.15;;;5.50;;
75427;SDS011;64008;55.612;37.698;2022-10-22T15:10:18;8.35;;;4.00;;
75427;SDS011;64008;55.612;37.698;2022-10-22T15:12:44;9.68;;;4.25;;
75427;SDS011;64008;55.612;37.698;2022-10-22T15:15:09;9.57;;;4.05;;
75427;SDS011;64008;55.612;37.698;2022-10-22T15:17:36;8.95;;;4.35;;
75427;SDS011;64008;55.612;37.698;2022-10-22T15:22:29;8.80;;;4.07;;
75427;SDS011;64008;55.612;37.698;2022-10-22T15:24:57;10.20;;;4.15;;
75427;SDS011;64008;55.612;37.698;2022-10-22T15:27:22;12.20;;;4.57;;
75427;SDS011;64008;55.612;37.698;2022-10-22T15:29:49;11.40;;;5.18;;
75427;SDS011;64008;55.612;37.698;2022-10-22T15:32:14;9.82;;;4.85;;
75427;SDS011;64008;55.612;37.698;2022-10-22T15:34:40;11.73;;;4.47;;
75427;SDS011;64008;55.612;37.698;2022-10-22T15:37:06;13.38;;;4.65;;
75427;SDS011;64008;55.612;37.698;2022-10-22T15:39:34;9.20;;;4.55;;
75427;SDS011;64008;55.612;37.698;2022-10-22T15:42:02;10.02;;;4.90;;
75427;SDS011;64008;55.612;37.698;2022-10-22T15:44:29;10.75;;;5.03;;
75427;SDS011;64008;55.612;37.698;2022-10-22T15:46:55;10.57;;;5.22;;
75427;SDS011;64008;55.612;37.698;2022-10-22T15:49:21;10.80;;;5.85;;
75427;SDS011;64008;55.612;37.698;2022-10-22T15:51:47;10.45;;;5.43;;
75427;SDS011;64008;55.612;37.698;2022-10-22T15:54:14;14.02;;;5.50;;
75427;SDS011;64008;55.612;37.698;2022-10-22T15:56:44;10.35;;;5.35;;
75427;SDS011;64008;55.612;37.698;2022-10-22T15:59:11;13.23;;;6.10;;
75427;SDS011;64008;55.612;37.698;2022-10-22T16:01:37;14.38;;;6.68;;
75427;SDS011;64008;55.612;37.698;2022-10-22T16:04:04;11.82;;;5.82;;
75427;SDS011;64008;55.612;37.698;2022-10-22T16:06:32;10.55;;;4.97;;
75427;SDS011;64008;55.612;37.698;2022-10-22T16:09:02;13.48;;;6.55;;
75427;SDS011;64008;55.612;37.698;2022-10-22T16:11:29;17.17;;;6.55;;
75427;SDS011;64008;55.612;37.698;2022-10-22T16:13:56;12.10;;;6.13;;
75427;SDS011;64008;55.612;37.698;2022-10-22T16:16:23;12.80;;;6.32;;
75427;SDS011;64008;55.612;37.698;2022-10-22T16:18:51;15.57;;;6.18;;
75427;SDS011;64008;55.612;37.698;2022-10-22T16:21:18;16.63;;;6.68;;
75427;SDS011;64008;55.612;37.698;2022-10-22T16:23:45;15.32;;;6.47;;
75427;SDS011;64008;55.612;37.698;2022-10-22T16:26:11;14.25;;;5.18;;
75427;SDS011;64008;55.612;37.698;2022-10-22T16:31:03;16.48;;;6.07;;
75427;SDS011;64008;55.612;37.698;2022-10-22T16:33:30;13.27;;;6.05;;
75427;SDS011;64008;55.612;37.698;2022-10-22T16:35:57;14.40;;;5.90;;
75427;SDS011;64008;55.612;37.698;2022-10-22T16:38:23;14.82;;;6.07;;
75427;SDS011;64008;55.612;37.698;2022-10-22T16:40:50;14.80;;;5.22;;
75427;SDS011;64008;55.612;37.698;2022-10-22T16:43:16;13.63;;;5.68;;
75427;SDS011;64008;55.612;37.698;2022-10-22T16:45:50;12.13;;;5.63;;
75427;SDS011;64008;55.612;37.698;2022-10-22T16:48:16;11.73;;;6.20;;
75427;SDS011;64008;55.612;37.698;2022-10-22T16:50:42;10.95;;;5.57;;
75427;SDS011;64008;55.612;37.698;2022-10-22T16:53:08;13.18;;;5.95;;